sensor_id;sensor_type;location;lat;lon;timestamp;P1;durP1;ratioP1;P2;durP2;ratioP2
6757;SDS011;3416;53.074;8.822;2023-07-31T00:01:26;9.20;;;3.60;;
6757;SDS011;3416;53.074;8.822;2023-07-31T00:03:54;9.20;;;5.18;;
6757;SDS011;3416;53.074;8.822;2023-07-31T00:06:22;5.93;;;2.90;;
6757;SDS011;3416;53.074;8.822;2023-07-31T00:08:49;7.65;;;4.15;;
6757;SDS011;3416;53.074;8.822;2023-07-31T00:11:20;8.13;;;5.90;;
6757;SDS011;3416;53.074;8.822;2023-07-31T00:13:47;9.67;;;3.40;;
6757;SDS011;3416;53.074;8.822;2023-07-31T00:16:13;8.80;;;3.20;;
6757;SDS011;3416;53.074;8.822;2023-07-31T00:18:40;9.53;;;3.83;;
6757;SDS011;3416;53.074;8.822;2023-07-31T00:21:09;7.75;;;3.00;;
6757;SDS011;3416;53.074;8.822;2023-07-31T00:23:36;5.50;;;3.38;;
6757;SDS011;3416;53.074;8.822;2023-07-31T00:26:03;5.37;;;3.70;;
6757;SDS011;3416;53.074;8.822;2023-07-31T00:28:29;6.40;;;3.60;;
6757;SDS011;3416;53.074;8.822;2023-07-31T00:30:56;5.75;;;2.70;;
6757;SDS011;3416;53.074;8.822;2023-07-31T00:33:23;6.13;;;3.27;;
6757;SDS011;3416;53.074;8.822;2023-07-31T00:35:50;6.97;;;3.42;;
6757;SDS011;3416;53.074;8.822;2023-07-31T00:38:18;7.45;;;3.22;;
6757;SDS011;3416;53.074;8.822;2023-07-31T00:40:46;12.90;;;2.88;;
6757;SDS011;3416;53.074;8.822;2023-07-31T00:43:13;6.43;;;3.07;;
6757;SDS011;3416;53.074;8.822;2023-07-31T00:45:40;6.80;;;3.35;;
6757;SDS011;3416;53.074;8.822;2023-07-31T00:48:07;6.35;;;4.90;;
6757;SDS011;3416;53.074;8.822;2023-07-31T00:50:35;7.13;;;3.10;;
6757;SDS011;3416;53.074;8.822;2023-07-31T00:53:02;15.18;;;4.32;;
6757;SDS011;3416;53.074;8.822;2023-07-31T00:55:30;7.63;;;3.00;;
6757;SDS011;3416;53.074;8.822;2023-07-31T00:57:57;7.95;;;3.25;;
6757;SDS011;3416;53.074;8.822;2023-07-31T01:00:24;5.37;;;3.40;;
6757;SDS011;3416;53.074;8.822;2023-07-31T01:02:51;6.93;;;3.47;;
6757;SDS011;3416;53.074;8.822;2023-07-31T01:05:18;4.40;;;3.47;;
6757;SDS011;3416;53.074;8.822;2023-07-31T01:07:52;9.00;;;3.22;;
6757;SDS011;3416;53.074;8.822;2023-07-31T01:10:22;9.02;;;3.15;;
6757;SDS011;3416;53.074;8.822;2023-07-31T01:12:53;11.98;;;4.15;;
6757;SDS011;3416;53.074;8.822;2023-07-31T01:15:22;6.82;;;4.50;;
6757;SDS011;3416;53.074;8.822;2023-07-31T01:17:49;9.13;;;4.30;;
6757;SDS011;3416;53.074;8.822;2023-07-31T01:20:17;5.95;;;3.67;;
6757;SDS011;3416;53.074;8.822;2023-07-31T01:23:06;4.80;;;3.20;;
6757;SDS011;3416;53.074;8.822;2023-07-31T01:25:51;4.83;;;3.80;;
6757;SDS011;3416;53.074;8.822;2023-07-31T01:28:29;6.43;;;3.13;;
6757;SDS011;3416;53.074;8.822;2023-07-31T01:31:01;5.17;;;3.30;;
6757;SDS011;3416;53.074;8.822;2023-07-31T01:33:30;4.57;;;3.47;;
6757;SDS011;3416;53.074;8.822;2023-07-31T01:35:57;5.73;;;3.93;;
6757;SDS011;3416;53.074;8.822;2023-07-31T01:38:24;4.03;;;2.90;;
6757;SDS011;3416;53.074;8.822;2023-07-31T01:40:52;2.92;;;2.35;;
6757;SDS011;3416;53.074;8.822;2023-07-31T01:43:19;5.10;;;3.05;;
6757;SDS011;3416;53.074;8.822;2023-07-31T01:45:46;5.23;;;3.10;;
6757;SDS011;3416;53.074;8.822;2023-07-31T01:48:13;6.17;;;3.17;;
6757;SDS011;3416;53.074;8.822;2023-07-31T01:50:40;3.60;;;2.73;;
6757;SDS011;3416;53.074;8.822;2023-07-31T01:53:07;7.40;;;3.30;;
6757;SDS011;3416;53.074;8.822;2023-07-31T01:55:34;6.53;;;3.20;;
6757;SDS011;3416;53.074;8.822;2023-07-31T01:58:02;4.57;;;3.42;;
6757;SDS011;3416;53.074;8.822;2023-07-31T02:00:29;5.50;;;2.50;;
6757;SDS011;3416;53.074;8.822;2023-07-31T02:02:55;4.72;;;3.45;;
6757;SDS011;3416;53.074;8.822;2023-07-31T02:05:22;5.75;;;3.85;;
6757;SDS011;3416;53.074;8.822;2023-07-31T02:07:49;4.88;;;3.45;;
6757;SDS011;3416;53.074;8.822;2023-07-31T02:10:16;5.07;;;4.15;;
6757;SDS011;3416;53.074;8.822;2023-07-31T02:12:42;6.63;;;4.07;;
6757;SDS011;3416;53.074;8.822;2023-07-31T02:15:11;5.22;;;2.78;;
6757;SDS011;3416;53.074;8.822;2023-07-31T02:17:37;4.75;;;3.42;;
6757;SDS011;3416;53.074;8.822;2023-07-31T02:20:05;5.80;;;3.88;;
6757;SDS011;3416;53.074;8.822;2023-07-31T02:22:32;5.90;;;3.20;;
6757;SDS011;3416;53.074;8.822;2023-07-31T02:24:59;5.10;;;3.80;;
6757;SDS011;3416;53.074;8.822;2023-07-31T02:27:26;5.85;;;4.40;;
6757;SDS011;3416;53.074;8.822;2023-07-31T02:29:53;6.80;;;4.60;;
6757;SDS011;3416;53.074;8.822;2023-07-31T02:32:21;5.60;;;4.30;;
6757;SDS011;3416;53.074;8.822;2023-07-31T02:34:48;6.70;;;4.70;;
6757;SDS011;3416;53.074;8.822;2023-07-31T02:37:15;5.18;;;3.85;;
6757;SDS011;3416;53.074;8.822;2023-07-31T02:39:42;5.05;;;4.13;;
6757;SDS011;3416;53.074;8.822;2023-07-31T02:42:08;5.35;;;4.22;;
6757;SDS011;3416;53.074;8.822;2023-07-31T02:44:35;3.97;;;3.67;;
6757;SDS011;3416;53.074;8.822;2023-07-31T02:47:02;8.80;;;7.55;;
6757;SDS011;3416;53.074;8.822;2023-07-31T02:49:31;5.35;;;4.85;;
6757;SDS011;3416;53.074;8.822;2023-07-31T02:51:57;5.20;;;4.70;;
6757;SDS011;3416;53.074;8.822;2023-07-31T02:54:24;6.55;;;4.60;;
6757;SDS011;3416;53.074;8.822;2023-07-31T02:56:51;5.18;;;4.53;;
6757;SDS011;3416;53.074;8.822;2023-07-31T02:59:19;4.10;;;3.72;;
6757;SDS011;3416;53.074;8.822;2023-07-31T03:01:46;5.95;;;5.32;;
6757;SDS011;3416;53.074;8.822;2023-07-31T03:04:13;6.07;;;5.38;;
6757;SDS011;3416;53.074;8.822;2023-07-31T03:06:41;5.72;;;5.13;;
6757;SDS011;3416;53.074;8.822;2023-07-31T03:09:08;6.45;;;5.85;;
6757;SDS011;3416;53.074;8.822;2023-07-31T03:11:35;5.80;;;4.72;;
6757;SDS011;3416;53.074;8.822;2023-07-31T03:14:02;5.75;;;4.82;;
6757;SDS011;3416;53.074;8.822;2023-07-31T03:16:29;5.82;;;4.35;;
6757;SDS011;3416;53.074;8.822;2023-07-31T03:18:55;7.32;;;5.22;;
6757;SDS011;3416;53.074;8.822;2023-07-31T03:21:23;5.97;;;5.38;;
6757;SDS011;3416;53.074;8.822;2023-07-31T03:23:53;6.00;;;4.47;;
6757;SDS011;3416;53.074;8.822;2023-07-31T03:26:20;4.70;;;4.22;;
6757;SDS011;3416;53.074;8.822;2023-07-31T03:28:47;6.85;;;4.95;;
6757;SDS011;3416;53.074;8.822;2023-07-31T03:31:14;5.45;;;4.80;;
6757;SDS011;3416;53.074;8.822;2023-07-31T03:33:41;5.15;;;4.47;;
6757;SDS011;3416;53.074;8.822;2023-07-31T03:36:08;5.32;;;4.45;;
6757;SDS011;3416;53.074;8.822;2023-07-31T03:38:35;6.57;;;5.10;;
6757;SDS011;3416;53.074;8.822;2023-07-31T03:41:03;4.50;;;4.10;;
6757;SDS011;3416;53.074;8.822;2023-07-31T03:43:31;4.30;;;3.85;;
6757;SDS011;3416;53.074;8.822;2023-07-31T03:45:58;4.35;;;3.63;;
6757;SDS011;3416;53.074;8.822;2023-07-31T03:48:25;4.65;;;4.28;;
6757;SDS011;3416;53.074;8.822;2023-07-31T03:50:52;6.03;;;4.70;;
6757;SDS011;3416;53.074;8.822;2023-07-31T03:53:19;5.68;;;4.53;;
6757;SDS011;3416;53.074;8.822;2023-07-31T03:55:46;5.10;;;4.63;;
6757;SDS011;3416;53.074;8.822;2023-07-31T03:58:15;5.22;;;4.72;;
6757;SDS011;3416;53.074;8.822;2023-07-31T04:00:41;6.00;;;5.40;;
6757;SDS011;3416;53.074;8.822;2023-07-31T04:03:08;5.65;;;5.15;;
6757;SDS011;3416;53.074;8.822;2023-07-31T04:05:37;7.13;;;5.07;;
6757;SDS011;3416;53.074;8.822;2023-07-31T04:08:04;7.47;;;6.35;;
6757;SDS011;3416;53.074;8.822;2023-07-31T04:10:31;5.83;;;5.23;;
6757;SDS011;3416;53.074;8.822;2023-07-31T04:13:02;5.70;;;5.10;;
6757;SDS011;3416;53.074;8.822;2023-07-31T04:15:30;7.45;;;5.72;;
6757;SDS011;3416;53.074;8.822;2023-07-31T04:17:59;5.20;;;4.70;;
6757;SDS011;3416;53.074;8.822;2023-07-31T04:20:26;6.00;;;5.32;;
6757;SDS011;3416;53.074;8.822;2023-07-31T04:22:53;5.93;;;5.43;;
6757;SDS011;3416;53.074;8.822;2023-07-31T04:25:20;5.22;;;4.75;;
6757;SDS011;3416;53.074;8.822;2023-07-31T04:27:46;4.90;;;4.40;;
6757;SDS011;3416;53.074;8.822;2023-07-31T04:30:13;4.57;;;3.83;;
6757;SDS011;3416;53.074;8.822;2023-07-31T04:32:41;4.40;;;3.80;;
6757;SDS011;3416;53.074;8.822;2023-07-31T04:35:08;4.10;;;3.70;;
6757;SDS011;3416;53.074;8.822;2023-07-31T04:37:35;4.88;;;3.75;;
6757;SDS011;3416;53.074;8.822;2023-07-31T04:40:03;4.93;;;4.53;;
6757;SDS011;3416;53.074;8.822;2023-07-31T04:42:31;4.20;;;3.80;;
6757;SDS011;3416;53.074;8.822;2023-07-31T04:44:57;4.93;;;3.83;;
6757;SDS011;3416;53.074;8.822;2023-07-31T04:47:24;3.85;;;3.55;;
6757;SDS011;3416;53.074;8.822;2023-07-31T04:49:52;5.77;;;4.13;;
6757;SDS011;3416;53.074;8.822;2023-07-31T04:52:19;4.00;;;3.60;;
6757;SDS011;3416;53.074;8.822;2023-07-31T04:54:46;4.45;;;4.00;;
6757;SDS011;3416;53.074;8.822;2023-07-31T04:57:13;4.20;;;3.80;;
6757;SDS011;3416;53.074;8.822;2023-07-31T04:59:40;5.32;;;3.80;;
6757;SDS011;3416;53.074;8.822;2023-07-31T05:02:08;4.53;;;4.13;;
6757;SDS011;3416;53.074;8.822;2023-07-31T05:04:35;4.63;;;4.10;;
6757;SDS011;3416;53.074;8.822;2023-07-31T05:07:03;4.30;;;3.90;;
6757;SDS011;3416;53.074;8.822;2023-07-31T05:09:30;4.53;;;3.72;;
6757;SDS011;3416;53.074;8.822;2023-07-31T05:11:57;4.70;;;4.30;;
6757;SDS011;3416;53.074;8.822;2023-07-31T05:14:25;3.17;;;2.90;;
6757;SDS011;3416;53.074;8.822;2023-07-31T05:16:52;4.20;;;3.10;;
6757;SDS011;3416;53.074;8.822;2023-07-31T05:19:18;4.13;;;3.75;;
6757;SDS011;3416;53.074;8.822;2023-07-31T05:21:45;2.57;;;2.37;;
6757;SDS011;3416;53.074;8.822;2023-07-31T05:24:13;3.35;;;2.50;;
6757;SDS011;3416;53.074;8.822;2023-07-31T05:26:40;3.00;;;2.70;;
6757;SDS011;3416;53.074;8.822;2023-07-31T05:29:07;3.20;;;2.90;;
6757;SDS011;3416;53.074;8.822;2023-07-31T05:31:34;2.50;;;1.95;;
6757;SDS011;3416;53.074;8.822;2023-07-31T05:34:00;2.22;;;2.03;;
6757;SDS011;3416;53.074;8.822;2023-07-31T06:05:08;4.30;;;1.90;;
6757;SDS011;3416;53.074;8.822;2023-07-31T06:07:35;2.20;;;1.50;;
6757;SDS011;3416;53.074;8.822;2023-07-31T06:10:02;2.80;;;2.10;;
6757;SDS011;3416;53.074;8.822;2023-07-31T06:12:30;2.57;;;2.17;;
6757;SDS011;3416;53.074;8.822;2023-07-31T06:14:57;2.33;;;1.70;;
6757;SDS011;3416;53.074;8.822;2023-07-31T06:17:24;4.85;;;2.08;;
6757;SDS011;3416;53.074;8.822;2023-07-31T06:19:51;4.43;;;2.10;;
6757;SDS011;3416;53.074;8.822;2023-07-31T06:22:19;2.30;;;2.10;;
6757;SDS011;3416;53.074;8.822;2023-07-31T06:24:46;2.50;;;2.30;;
6757;SDS011;3416;53.074;8.822;2023-07-31T06:27:13;2.93;;;2.50;;
6757;SDS011;3416;53.074;8.822;2023-07-31T06:29:40;2.53;;;2.27;;
6757;SDS011;3416;53.074;8.822;2023-07-31T06:32:07;3.60;;;3.17;;
6757;SDS011;3416;53.074;8.822;2023-07-31T06:34:34;2.08;;;1.95;;
6757;SDS011;3416;53.074;8.822;2023-07-31T06:37:01;2.50;;;2.20;;
6757;SDS011;3416;53.074;8.822;2023-07-31T06:39:29;3.70;;;3.03;;
6757;SDS011;3416;53.074;8.822;2023-07-31T06:41:56;2.53;;;2.27;;
6757;SDS011;3416;53.074;8.822;2023-07-31T06:44:23;3.70;;;2.57;;
6757;SDS011;3416;53.074;8.822;2023-07-31T06:46:50;3.40;;;3.10;;
6757;SDS011;3416;53.074;8.822;2023-07-31T06:49:17;2.97;;;2.67;;
6757;SDS011;3416;53.074;8.822;2023-07-31T06:51:44;2.20;;;1.87;;
6757;SDS011;3416;53.074;8.822;2023-07-31T06:54:10;4.33;;;2.10;;
6757;SDS011;3416;53.074;8.822;2023-07-31T06:56:39;5.83;;;1.90;;
6757;SDS011;3416;53.074;8.822;2023-07-31T08:15:39;14.00;;;9.67;;
6757;SDS011;3416;53.074;8.822;2023-07-31T08:18:07;22.40;;;11.37;;
6757;SDS011;3416;53.074;8.822;2023-07-31T08:20:34;17.03;;;11.10;;
6757;SDS011;3416;53.074;8.822;2023-07-31T08:23:01;25.43;;;12.13;;
6757;SDS011;3416;53.074;8.822;2023-07-31T08:25:28;21.60;;;11.40;;
6757;SDS011;3416;53.074;8.822;2023-07-31T08:27:55;19.97;;;11.90;;
6757;SDS011;3416;53.074;8.822;2023-07-31T08:30:22;15.90;;;10.60;;
6757;SDS011;3416;53.074;8.822;2023-07-31T08:32:50;18.80;;;11.97;;
6757;SDS011;3416;53.074;8.822;2023-07-31T08:35:17;28.10;;;12.43;;
6757;SDS011;3416;53.074;8.822;2023-07-31T08:37:44;16.70;;;11.93;;
6757;SDS011;3416;53.074;8.822;2023-07-31T08:40:11;21.00;;;11.90;;
6757;SDS011;3416;53.074;8.822;2023-07-31T08:42:43;27.10;;;13.23;;
6757;SDS011;3416;53.074;8.822;2023-07-31T08:45:12;20.57;;;13.20;;
6757;SDS011;3416;53.074;8.822;2023-07-31T08:47:40;16.83;;;11.57;;
6757;SDS011;3416;53.074;8.822;2023-07-31T08:50:10;19.47;;;11.73;;
6757;SDS011;3416;53.074;8.822;2023-07-31T08:52:39;19.23;;;12.47;;
6757;SDS011;3416;53.074;8.822;2023-07-31T08:55:07;23.33;;;12.57;;
6757;SDS011;3416;53.074;8.822;2023-07-31T08:57:37;15.47;;;11.00;;
6757;SDS011;3416;53.074;8.822;2023-07-31T09:00:08;18.93;;;12.13;;
6757;SDS011;3416;53.074;8.822;2023-07-31T09:02:41;22.53;;;14.27;;
6757;SDS011;3416;53.074;8.822;2023-07-31T09:05:16;28.47;;;12.30;;
6757;SDS011;3416;53.074;8.822;2023-07-31T09:07:44;23.90;;;11.30;;
6757;SDS011;3416;53.074;8.822;2023-07-31T09:10:13;18.40;;;10.70;;
6757;SDS011;3416;53.074;8.822;2023-07-31T09:12:43;21.40;;;10.57;;
6757;SDS011;3416;53.074;8.822;2023-07-31T09:15:12;15.90;;;10.43;;
6757;SDS011;3416;53.074;8.822;2023-07-31T09:17:40;12.53;;;8.17;;
6757;SDS011;3416;53.074;8.822;2023-07-31T09:20:13;14.83;;;9.60;;
6757;SDS011;3416;53.074;8.822;2023-07-31T09:22:43;15.03;;;8.83;;
6757;SDS011;3416;53.074;8.822;2023-07-31T09:25:19;13.17;;;8.50;;
6757;SDS011;3416;53.074;8.822;2023-07-31T09:34:00;18.23;;;7.97;;
6757;SDS011;3416;53.074;8.822;2023-07-31T09:39:56;13.43;;;7.30;;
6757;SDS011;3416;53.074;8.822;2023-07-31T09:43:18;14.73;;;8.50;;
6757;SDS011;3416;53.074;8.822;2023-07-31T09:45:54;12.33;;;8.83;;
6757;SDS011;3416;53.074;8.822;2023-07-31T09:48:23;16.13;;;8.60;;
6757;SDS011;3416;53.074;8.822;2023-07-31T09:50:55;15.53;;;8.27;;
6757;SDS011;3416;53.074;8.822;2023-07-31T09:53:29;14.97;;;8.10;;
6757;SDS011;3416;53.074;8.822;2023-07-31T09:55:57;10.27;;;6.57;;
6757;SDS011;3416;53.074;8.822;2023-07-31T09:58:25;13.20;;;7.67;;
6757;SDS011;3416;53.074;8.822;2023-07-31T10:00:55;10.90;;;6.00;;
6757;SDS011;3416;53.074;8.822;2023-07-31T10:03:24;8.33;;;6.10;;
6757;SDS011;3416;53.074;8.822;2023-07-31T10:05:52;9.20;;;5.97;;
6757;SDS011;3416;53.074;8.822;2023-07-31T10:08:21;7.53;;;5.10;;
6757;SDS011;3416;53.074;8.822;2023-07-31T10:10:55;11.80;;;4.97;;
6757;SDS011;3416;53.074;8.822;2023-07-31T10:13:25;7.67;;;5.43;;
6757;SDS011;3416;53.074;8.822;2023-07-31T10:15:54;7.30;;;4.27;;
6757;SDS011;3416;53.074;8.822;2023-07-31T10:18:24;5.40;;;4.50;;
6757;SDS011;3416;53.074;8.822;2023-07-31T10:20:52;5.40;;;4.03;;
6757;SDS011;3416;53.074;8.822;2023-07-31T10:23:20;5.63;;;3.97;;
6757;SDS011;3416;53.074;8.822;2023-07-31T10:25:49;7.10;;;4.13;;
6757;SDS011;3416;53.074;8.822;2023-07-31T10:28:20;6.97;;;3.83;;
6757;SDS011;3416;53.074;8.822;2023-07-31T10:30:47;6.87;;;4.80;;
6757;SDS011;3416;53.074;8.822;2023-07-31T10:33:15;5.43;;;3.73;;
6757;SDS011;3416;53.074;8.822;2023-07-31T10:35:44;7.03;;;4.70;;
6757;SDS011;3416;53.074;8.822;2023-07-31T10:38:13;5.30;;;3.50;;
6757;SDS011;3416;53.074;8.822;2023-07-31T10:40:40;3.33;;;3.03;;
6757;SDS011;3416;53.074;8.822;2023-07-31T10:43:07;3.13;;;2.83;;
6757;SDS011;3416;53.074;8.822;2023-07-31T10:45:38;5.83;;;3.13;;
6757;SDS011;3416;53.074;8.822;2023-07-31T10:48:05;8.30;;;2.93;;
6757;SDS011;3416;53.074;8.822;2023-07-31T10:50:36;3.93;;;2.73;;
6757;SDS011;3416;53.074;8.822;2023-07-31T10:53:04;2.67;;;2.47;;
6757;SDS011;3416;53.074;8.822;2023-07-31T10:55:32;2.50;;;2.30;;
6757;SDS011;3416;53.074;8.822;2023-07-31T10:58:05;2.50;;;1.70;;
6757;SDS011;3416;53.074;8.822;2023-07-31T11:00:33;2.73;;;2.53;;
6757;SDS011;3416;53.074;8.822;2023-07-31T11:03:04;2.70;;;2.23;;
6757;SDS011;3416;53.074;8.822;2023-07-31T11:05:47;2.90;;;2.00;;
6757;SDS011;3416;53.074;8.822;2023-07-31T11:08:16;2.40;;;2.20;;
6757;SDS011;3416;53.074;8.822;2023-07-31T11:10:45;2.50;;;1.73;;
6757;SDS011;3416;53.074;8.822;2023-07-31T11:13:13;3.70;;;1.67;;
6757;SDS011;3416;53.074;8.822;2023-07-31T11:15:40;3.17;;;1.43;;
6757;SDS011;3416;53.074;8.822;2023-07-31T11:18:09;3.13;;;1.90;;
6757;SDS011;3416;53.074;8.822;2023-07-31T11:20:36;5.40;;;1.53;;
6757;SDS011;3416;53.074;8.822;2023-07-31T11:23:06;1.50;;;1.30;;
6757;SDS011;3416;53.074;8.822;2023-07-31T11:25:34;1.57;;;1.00;;
6757;SDS011;3416;53.074;8.822;2023-07-31T11:28:04;1.70;;;1.13;;
6757;SDS011;3416;53.074;8.822;2023-07-31T11:30:33;5.10;;;1.67;;
6757;SDS011;3416;53.074;8.822;2023-07-31T11:33:00;3.40;;;1.90;;
6757;SDS011;3416;53.074;8.822;2023-07-31T11:35:30;1.57;;;1.07;;
6757;SDS011;3416;53.074;8.822;2023-07-31T11:37:58;2.53;;;1.43;;
6757;SDS011;3416;53.074;8.822;2023-07-31T11:40:26;1.83;;;1.10;;
6757;SDS011;3416;53.074;8.822;2023-07-31T11:42:54;1.43;;;1.20;;
6757;SDS011;3416;53.074;8.822;2023-07-31T11:45:24;1.73;;;1.30;;
6757;SDS011;3416;53.074;8.822;2023-07-31T11:47:51;1.47;;;1.20;;
6757;SDS011;3416;53.074;8.822;2023-07-31T11:50:18;3.90;;;1.20;;
6757;SDS011;3416;53.074;8.822;2023-07-31T11:52:46;1.10;;;1.00;;
6757;SDS011;3416;53.074;8.822;2023-07-31T11:55:15;3.73;;;1.37;;
6757;SDS011;3416;53.074;8.822;2023-07-31T11:57:43;1.10;;;1.00;;
6757;SDS011;3416;53.074;8.822;2023-07-31T12:00:12;2.73;;;1.67;;
6757;SDS011;3416;53.074;8.822;2023-07-31T12:02:41;5.00;;;4.30;;
6757;SDS011;3416;53.074;8.822;2023-07-31T12:05:10;1.57;;;0.90;;
6757;SDS011;3416;53.074;8.822;2023-07-31T12:07:45;1.20;;;1.00;;
6757;SDS011;3416;53.074;8.822;2023-07-31T12:10:24;1.47;;;1.17;;
6757;SDS011;3416;53.074;8.822;2023-07-31T12:13:02;1.30;;;1.10;;
6757;SDS011;3416;53.074;8.822;2023-07-31T12:15:32;1.30;;;1.00;;
6757;SDS011;3416;53.074;8.822;2023-07-31T12:18:00;1.23;;;1.13;;
6757;SDS011;3416;53.074;8.822;2023-07-31T12:20:29;0.90;;;0.80;;
6757;SDS011;3416;53.074;8.822;2023-07-31T12:22:58;1.00;;;0.93;;
6757;SDS011;3416;53.074;8.822;2023-07-31T12:25:28;1.30;;;1.20;;
6757;SDS011;3416;53.074;8.822;2023-07-31T12:28:03;2.23;;;2.00;;
6757;SDS011;3416;53.074;8.822;2023-07-31T12:30:32;3.60;;;1.90;;
6757;SDS011;3416;53.074;8.822;2023-07-31T12:33:03;1.80;;;1.70;;
6757;SDS011;3416;53.074;8.822;2023-07-31T12:35:34;1.30;;;1.20;;
6757;SDS011;3416;53.074;8.822;2023-07-31T12:38:04;1.30;;;1.17;;
6757;SDS011;3416;53.074;8.822;2023-07-31T12:40:31;3.00;;;1.50;;
6757;SDS011;3416;53.074;8.822;2023-07-31T12:43:00;1.67;;;1.23;;
6757;SDS011;3416;53.074;8.822;2023-07-31T12:45:28;1.60;;;1.40;;
6757;SDS011;3416;53.074;8.822;2023-07-31T12:47:55;5.60;;;1.80;;
6757;SDS011;3416;53.074;8.822;2023-07-31T12:50:22;2.00;;;1.20;;
6757;SDS011;3416;53.074;8.822;2023-07-31T12:52:50;1.20;;;1.10;;
6757;SDS011;3416;53.074;8.822;2023-07-31T12:55:18;2.40;;;1.90;;
6757;SDS011;3416;53.074;8.822;2023-07-31T12:57:46;1.63;;;1.47;;
6757;SDS011;3416;53.074;8.822;2023-07-31T13:00:13;1.80;;;1.67;;
6757;SDS011;3416;53.074;8.822;2023-07-31T13:02:40;2.63;;;1.80;;
6757;SDS011;3416;53.074;8.822;2023-07-31T13:05:07;2.00;;;1.90;;
6757;SDS011;3416;53.074;8.822;2023-07-31T13:07:34;2.30;;;2.10;;
6757;SDS011;3416;53.074;8.822;2023-07-31T13:10:01;2.50;;;2.30;;
6757;SDS011;3416;53.074;8.822;2023-07-31T13:12:29;2.57;;;2.03;;
6757;SDS011;3416;53.074;8.822;2023-07-31T13:14:56;2.37;;;2.07;;
6757;SDS011;3416;53.074;8.822;2023-07-31T13:17:23;2.23;;;2.03;;
6757;SDS011;3416;53.074;8.822;2023-07-31T13:19:50;3.10;;;2.10;;
6757;SDS011;3416;53.074;8.822;2023-07-31T13:22:16;4.73;;;2.60;;
6757;SDS011;3416;53.074;8.822;2023-07-31T13:24:43;3.17;;;2.03;;
6757;SDS011;3416;53.074;8.822;2023-07-31T13:27:10;3.33;;;2.27;;
6757;SDS011;3416;53.074;8.822;2023-07-31T13:29:38;2.30;;;2.10;;
6757;SDS011;3416;53.074;8.822;2023-07-31T13:32:05;5.07;;;3.87;;
6757;SDS011;3416;53.074;8.822;2023-07-31T13:34:32;3.20;;;2.90;;
6757;SDS011;3416;53.074;8.822;2023-07-31T13:36:59;3.07;;;2.73;;
6757;SDS011;3416;53.074;8.822;2023-07-31T13:39:25;2.97;;;2.70;;
6757;SDS011;3416;53.074;8.822;2023-07-31T13:41:52;3.70;;;3.30;;
6757;SDS011;3416;53.074;8.822;2023-07-31T13:44:20;3.63;;;3.23;;
6757;SDS011;3416;53.074;8.822;2023-07-31T13:46:48;3.40;;;3.10;;
6757;SDS011;3416;53.074;8.822;2023-07-31T13:49:15;3.07;;;2.67;;
6757;SDS011;3416;53.074;8.822;2023-07-31T13:51:41;5.20;;;4.70;;
6757;SDS011;3416;53.074;8.822;2023-07-31T13:54:08;3.43;;;3.13;;
6757;SDS011;3416;53.074;8.822;2023-07-31T13:56:36;6.03;;;3.77;;
6757;SDS011;3416;53.074;8.822;2023-07-31T13:59:03;4.33;;;3.93;;
6757;SDS011;3416;53.074;8.822;2023-07-31T14:01:30;6.27;;;3.53;;
6757;SDS011;3416;53.074;8.822;2023-07-31T14:03:58;4.33;;;3.57;;
6757;SDS011;3416;53.074;8.822;2023-07-31T14:06:25;4.20;;;3.33;;
6757;SDS011;3416;53.074;8.822;2023-07-31T14:08:52;4.97;;;4.47;;
6757;SDS011;3416;53.074;8.822;2023-07-31T14:11:20;4.87;;;4.00;;
6757;SDS011;3416;53.074;8.822;2023-07-31T14:13:47;6.47;;;5.77;;
6757;SDS011;3416;53.074;8.822;2023-07-31T14:16:14;4.50;;;4.10;;
6757;SDS011;3416;53.074;8.822;2023-07-31T14:18:41;5.30;;;4.80;;
6757;SDS011;3416;53.074;8.822;2023-07-31T14:21:09;5.57;;;5.00;;
6757;SDS011;3416;53.074;8.822;2023-07-31T14:23:36;7.83;;;5.80;;
6757;SDS011;3416;53.074;8.822;2023-07-31T14:26:03;6.20;;;5.60;;
6757;SDS011;3416;53.074;8.822;2023-07-31T14:28:30;6.03;;;5.53;;
6757;SDS011;3416;53.074;8.822;2023-07-31T14:30:57;7.50;;;5.57;;
6757;SDS011;3416;53.074;8.822;2023-07-31T14:33:24;5.83;;;5.20;;
6757;SDS011;3416;53.074;8.822;2023-07-31T14:35:51;6.20;;;5.30;;
6757;SDS011;3416;53.074;8.822;2023-07-31T14:38:19;10.00;;;5.80;;
6757;SDS011;3416;53.074;8.822;2023-07-31T14:40:46;7.77;;;6.97;;
6757;SDS011;3416;53.074;8.822;2023-07-31T14:43:13;6.13;;;5.57;;
6757;SDS011;3416;53.074;8.822;2023-07-31T14:45:40;7.37;;;6.67;;
6757;SDS011;3416;53.074;8.822;2023-07-31T14:48:07;6.73;;;6.07;;
6757;SDS011;3416;53.074;8.822;2023-07-31T14:50:34;11.33;;;6.73;;
6757;SDS011;3416;53.074;8.822;2023-07-31T14:53:01;7.50;;;6.77;;
6757;SDS011;3416;53.074;8.822;2023-07-31T14:55:29;8.70;;;7.03;;
6757;SDS011;3416;53.074;8.822;2023-07-31T14:57:56;9.70;;;5.77;;
6757;SDS011;3416;53.074;8.822;2023-07-31T15:00:23;10.60;;;5.90;;
6757;SDS011;3416;53.074;8.822;2023-07-31T15:02:51;6.80;;;6.07;;
6757;SDS011;3416;53.074;8.822;2023-07-31T15:05:18;10.17;;;6.60;;
6757;SDS011;3416;53.074;8.822;2023-07-31T15:07:45;10.20;;;7.50;;
6757;SDS011;3416;53.074;8.822;2023-07-31T15:10:12;7.90;;;7.20;;
6757;SDS011;3416;53.074;8.822;2023-07-31T15:12:41;8.43;;;7.63;;
6757;SDS011;3416;53.074;8.822;2023-07-31T15:15:08;10.57;;;9.50;;
6757;SDS011;3416;53.074;8.822;2023-07-31T15:17:35;9.30;;;8.47;;
6757;SDS011;3416;53.074;8.822;2023-07-31T15:20:03;13.93;;;8.93;;
6757;SDS011;3416;53.074;8.822;2023-07-31T15:22:31;10.13;;;8.83;;
6757;SDS011;3416;53.074;8.822;2023-07-31T15:24:58;9.97;;;8.53;;
6757;SDS011;3416;53.074;8.822;2023-07-31T15:27:24;10.60;;;8.67;;
6757;SDS011;3416;53.074;8.822;2023-07-31T15:29:53;11.43;;;10.33;;
6757;SDS011;3416;53.074;8.822;2023-07-31T15:32:20;11.30;;;10.07;;
6757;SDS011;3416;53.074;8.822;2023-07-31T15:34:48;12.70;;;9.90;;
6757;SDS011;3416;53.074;8.822;2023-07-31T15:37:15;12.80;;;11.00;;
6757;SDS011;3416;53.074;8.822;2023-07-31T15:39:42;10.80;;;9.70;;
6757;SDS011;3416;53.074;8.822;2023-07-31T15:42:09;12.90;;;10.77;;
6757;SDS011;3416;53.074;8.822;2023-07-31T15:44:36;12.57;;;10.87;;
6757;SDS011;3416;53.074;8.822;2023-07-31T15:47:05;13.20;;;11.23;;
6757;SDS011;3416;53.074;8.822;2023-07-31T15:49:32;11.80;;;10.60;;
6757;SDS011;3416;53.074;8.822;2023-07-31T15:51:59;12.60;;;11.23;;
6757;SDS011;3416;53.074;8.822;2023-07-31T15:54:26;11.77;;;9.63;;
6757;SDS011;3416;53.074;8.822;2023-07-31T15:56:53;10.07;;;8.63;;
6757;SDS011;3416;53.074;8.822;2023-07-31T15:59:20;9.97;;;9.03;;
6757;SDS011;3416;53.074;8.822;2023-07-31T16:01:47;9.40;;;8.13;;
6757;SDS011;3416;53.074;8.822;2023-07-31T16:04:15;8.70;;;7.87;;
6757;SDS011;3416;53.074;8.822;2023-07-31T16:06:42;7.97;;;7.17;;
6757;SDS011;3416;53.074;8.822;2023-07-31T16:09:08;8.17;;;7.37;;
6757;SDS011;3416;53.074;8.822;2023-07-31T16:11:35;7.63;;;6.93;;
6757;SDS011;3416;53.074;8.822;2023-07-31T16:14:02;8.93;;;8.03;;
6757;SDS011;3416;53.074;8.822;2023-07-31T16:16:29;7.43;;;6.60;;
6757;SDS011;3416;53.074;8.822;2023-07-31T16:18:56;7.37;;;6.67;;
6757;SDS011;3416;53.074;8.822;2023-07-31T16:21:24;5.40;;;4.90;;
6757;SDS011;3416;53.074;8.822;2023-07-31T16:23:52;6.10;;;5.50;;
6757;SDS011;3416;53.074;8.822;2023-07-31T16:26:19;6.17;;;5.67;;
6757;SDS011;3416;53.074;8.822;2023-07-31T16:28:46;6.20;;;5.60;;
6757;SDS011;3416;53.074;8.822;2023-07-31T16:31:12;5.17;;;4.67;;
6757;SDS011;3416;53.074;8.822;2023-07-31T16:33:39;7.70;;;6.27;;
6757;SDS011;3416;53.074;8.822;2023-07-31T16:36:06;6.97;;;4.60;;
6757;SDS011;3416;53.074;8.822;2023-07-31T16:38:34;8.60;;;5.13;;
6757;SDS011;3416;53.074;8.822;2023-07-31T16:41:01;5.07;;;4.67;;
6757;SDS011;3416;53.074;8.822;2023-07-31T16:43:28;5.10;;;4.27;;
6757;SDS011;3416;53.074;8.822;2023-07-31T16:45:55;5.40;;;4.90;;
6757;SDS011;3416;53.074;8.822;2023-07-31T16:48:22;5.83;;;4.73;;
6757;SDS011;3416;53.074;8.822;2023-07-31T16:50:49;4.50;;;4.10;;
6757;SDS011;3416;53.074;8.822;2023-07-31T16:53:16;5.13;;;4.67;;
6757;SDS011;3416;53.074;8.822;2023-07-31T16:55:44;6.63;;;5.33;;
6757;SDS011;3416;53.074;8.822;2023-07-31T16:58:11;5.23;;;4.83;;
6757;SDS011;3416;53.074;8.822;2023-07-31T17:00:37;4.93;;;4.37;;
6757;SDS011;3416;53.074;8.822;2023-07-31T17:03:04;6.43;;;4.87;;
6757;SDS011;3416;53.074;8.822;2023-07-31T17:05:31;5.93;;;5.43;;
6757;SDS011;3416;53.074;8.822;2023-07-31T17:07:58;5.57;;;5.13;;
6757;SDS011;3416;53.074;8.822;2023-07-31T17:10:25;6.37;;;5.73;;
6757;SDS011;3416;53.074;8.822;2023-07-31T17:12:53;6.10;;;5.40;;